^^
MeteoGriva-Weather Station Historical Data
Daily Summary for August 26, 2020 Units:  English    Metric   Both
Daily Weekly Monthly Yearly Custom
  High: Low: Average:
Temperature: 54 °F 41.4 °F 46.6 °F
Dew Point: 47.8 °F 35.1 °F 40.5 °F
Humidity: 99% 63.7% 79%
Wind Speed: 2.5mph 0mph 0.1mph
Wind Gust: 7.6mph - -
Wind- - SSE
Pressure: 30.3 in 30.1 in -
Precipitation: 0 in    
Historical Graphs
 
 
Tabular Data for August 26, 2020
Time Temperature Dew Point Pressure Wind Wind Speed Wind Gust Humidity Rainfall Rate (Hourly) solar
00:04 43.2 °F 35.8 °F 30.3 in Calm     75% 0 in 0 W/m2
00:09 43.2 °F 35.6 °F 30.3 in Calm     74.4% 0 in 0 W/m2
00:14 43.2 °F 35.2 °F 30.3 in Calm     73.7% 0 in 0 W/m2
00:19 43.3 °F 35.2 °F 30.3 in Calm     73% 0 in 0 W/m2
00:24 43.7 °F 35.1 °F 30.3 in Calm     71.6% 0 in 0 W/m2
00:29 43.9 °F 35.1 °F 30.3 in Calm     71% 0 in 0 W/m2
00:34 43.9 °F 35.1 °F 30.3 in Calm     71% 0 in 0 W/m2
00:39 44.1 °F 35.6 °F 30.3 in Calm     71.9% 0 in 0 W/m2
00:44 44.2 °F 35.6 °F 30.3 in Calm     71.6% 0 in 0 W/m2
00:49 44.1 °F 36 °F 30.3 in Calm     72.8% 0 in 0 W/m2
00:54 44.1 °F 36.1 °F 30.3 in Calm     73.9% 0 in 0 W/m2
00:59 43.7 °F 36.1 °F 30.3 in Calm     74.7% 0 in 0 W/m2
01:04 43 °F 36.1 °F 30.3 in Calm     76.6% 0 in 0 W/m2
01:09 43 °F 36.3 °F 30.3 in Calm     77% 0 in 0 W/m2
01:14 42.8 °F 36.3 °F 30.3 in Calm     77.8% 0 in 0 W/m2
01:19 42.4 °F 36.3 °F 30.3 in Calm     78.9% 0 in 0 W/m2
01:24 42.1 °F 36 °F 30.2 in Calm     79% 0 in 0 W/m2
01:29 41.9 °F 36 °F 30.2 in Calm     79.3% 0 in 0 W/m2
01:34 41.9 °F 36.1 °F 30.2 in Calm     80% 0 in 0 W/m2
01:39 41.7 °F 36 °F 30.2 in Calm     79.6% 0 in 0 W/m2
01:44 41.9 °F 35.6 °F 30.2 in Calm     78.4% 0 in 0 W/m2
01:49 41.9 °F 35.4 °F 30.2 in Calm     77.4% 0 in 0 W/m2
01:54 42.1 °F 35.8 °F 30.2 in Calm     78% 0 in 0 W/m2
01:59 42.3 °F 35.6 °F 30.3 in Calm     77.1% 0 in 0 W/m2
02:04 43.2 °F 36 °F 30.3 in Calm     75.3% 0 in 0 W/m2
02:09 43.2 °F 35.8 °F 30.3 in Calm     74.8% 0 in 0 W/m2
02:14 43.3 °F 35.6 °F 30.3 in Calm     74% 0 in 0 W/m2
02:19 43.5 °F 35.6 °F 30.2 in Calm     73.5% 0 in 0 W/m2
02:24 43.5 °F 36.5 °F 30.2 in Calm     75.8% 0 in 0 W/m2
02:29 43.5 °F 36.5 °F 30.3 in Calm     76% 0 in 0 W/m2
02:34 43.5 °F 36.7 °F 30.3 in Calm     76.4% 0 in 0 W/m2
02:39 43.3 °F 36.5 °F 30.3 in Calm     76.6% 0 in 0 W/m2
02:44 43.2 °F 36.3 °F 30.3 in Calm     76.3% 0 in 0 W/m2
02:49 43.2 °F 36.1 °F 30.3 in Calm     75.8% 0 in 0 W/m2
02:54 43.3 °F 36 °F 30.3 in Calm     74.7% 0 in 0 W/m2
02:59 43.3 °F 36.3 °F 30.3 in Calm     75.6% 0 in 0 W/m2
03:04 43.3 °F 36.7 °F 30.3 in Calm     76.8% 0 in 0 W/m2
03:09 43.3 °F 36.9 °F 30.3 in Calm     77.9% 0 in 0 W/m2
03:14 43.3 °F 37 °F 30.3 in Calm     78.7% 0 in 0 W/m2
03:19 43.2 °F 37 °F 30.3 in Calm     78.9% 0 in 0 W/m2
03:24 43.3 °F 36.7 °F 30.3 in Calm     77.1% 0 in 0 W/m2
03:29 43.3 °F 37 °F 30.3 in Calm     78.3% 0 in 0 W/m2
03:34 43.2 °F 37.6 °F 30.3 in Calm     80.2% 0 in 0 W/m2
03:39 43.2 °F 37.4 °F 30.3 in Calm     80.3% 0 in 0 W/m2
03:44 42.3 °F 36.7 °F 30.3 in Calm     80.3% 0 in 0 W/m2
03:49 42.1 °F 36.3 °F 30.3 in Calm     80% 0 in 0 W/m2
03:54 42.1 °F 36.3 °F 30.2 in Calm     80% 0 in 0 W/m2
03:59 42.1 °F 36.5 °F 30.2 in Calm     80.7% 0 in 0 W/m2
04:04 42.1 °F 36.9 °F 30.2 in Calm     81.2% 0 in 0 W/m2
04:09 42.1 °F 36.7 °F 30.2 in Calm     81.2% 0 in 0 W/m2
04:14 42.1 °F 36.7 °F 30.2 in Calm     80.9% 0 in 0 W/m2
04:19 42.1 °F 36.7 °F 30.2 in Calm     81% 0 in 0 W/m2
04:24 42.1 °F 36.7 °F 30.2 in Calm     81% 0 in 0 W/m2
04:29 41.9 °F 36.9 °F 30.2 in Calm     81.7% 0 in 0 W/m2
04:34 41.9 °F 36.5 °F 30.2 in Calm     80.9% 0 in 0 W/m2
04:39 41.9 °F 36.1 °F 30.2 in Calm     80% 0 in 0 W/m2
04:44 42.1 °F 36.5 °F 30.2 in Calm     80.6% 0 in 0 W/m2
04:49 42.3 °F 36.7 °F 30.2 in Calm     80.8% 0 in 0 W/m2
04:54 42.3 °F 36.9 °F 30.2 in Calm     81% 0 in 0 W/m2
04:59 42.3 °F 36.9 °F 30.2 in Calm     80.8% 0 in 0 W/m2
05:04 42.8 °F 37.6 °F 30.2 in Calm     81.4% 0 in 0 W/m2
05:09 42.6 °F 37.4 °F 30.2 in Calm     81.3% 0 in 0 W/m2
05:14 42.6 °F 37.4 °F 30.2 in Calm     81.6% 0 in 0 W/m2
05:19 42.6 °F 37 °F 30.2 in Calm     80.3% 0 in 0 W/m2
05:24 42.8 °F 36.9 °F 30.2 in Calm     79.3% 0 in 0 W/m2
05:29 42.8 °F 37 °F 30.2 in Calm     80% 0 in 0 W/m2
05:34 42.8 °F 36.9 °F 30.2 in Calm     79.7% 0 in 0 W/m2
05:39 42.8 °F 36.7 °F 30.2 in Calm     79% 0 in 0 W/m2
05:44 42.8 °F 36.7 °F 30.2 in Calm     79% 0 in 0 W/m2
05:49 42.8 °F 36.7 °F 30.2 in Calm     78.8% 0 in 0 W/m2
05:54 42.8 °F 36.7 °F 30.2 in Calm     78.7% 0 in 0 W/m2
05:59 42.8 °F 36.5 °F 30.2 in Calm     78% 0 in 0 W/m2
06:04 42.6 °F 36.5 °F 30.2 in Calm     78.4% 0 in 0 W/m2
06:09 42.6 °F 36.3 °F 30.2 in Calm     78.2% 0 in 0 W/m2
06:14 42.6 °F 36.5 °F 30.2 in Calm     79.3% 0 in 0 W/m2
06:19 42.4 °F 37.2 °F 30.2 in Calm     81.4% 0 in 0 W/m2
06:24 41.5 °F 36.7 °F 30.2 in Calm     82.8% 0 in 0 W/m2
06:29 41.4 °F 36.3 °F 30.2 in Calm     82% 0 in 0 W/m2
06:34 41.4 °F 36.1 °F 30.2 in Calm     81.3% 0 in 0 W/m2
06:39 41.4 °F 36.1 °F 30.2 in Calm     81.2% 0 in 0 W/m2
06:44 41.4 °F 36.3 °F 30.2 in Calm     82% 0 in 0 W/m2
06:49 41.4 °F 35.8 °F 30.2 in Calm     80.4% 0 in 0 W/m2
06:54 41.4 °F 35.6 °F 30.2 in Calm     80% 0 in 0 W/m2
06:59 41.4 °F 36 °F 30.2 in Calm     80.9% 0 in 0 W/m2
07:04 41.7 °F 36.1 °F 30.2 in Calm     80.4% 0 in 0 W/m2
07:09 41.7 °F 36.5 °F 30.2 in Calm     81.3% 0 in 0 W/m2
07:14 41.7 °F 36.3 °F 30.2 in Calm     81% 0 in 0 W/m2
07:19 41.7 °F 36.3 °F 30.2 in Calm     81% 0 in 0 W/m2
07:24 41.5 °F 36.1 °F 30.2 in Calm     81.1% 0 in 0 W/m2
07:29 41.5 °F 36.1 °F 30.2 in Calm     81% 0 in 0 W/m2
07:34 41.5 °F 36.1 °F 30.2 in Calm     81% 0 in 0 W/m2
07:39 41.5 °F 36 °F 30.2 in Calm     80.8% 0 in 0 W/m2
07:44 42.1 °F 36.3 °F 30.2 in Calm     79.7% 0 in 0 W/m2
07:49 42.4 °F 36.1 °F 30.2 in Calm     78.1% 0 in 0 W/m2
07:54 42.4 °F 36.1 °F 30.2 in Calm     78% 0 in 2 W/m2
07:59 42.4 °F 36.1 °F 30.2 in Calm     78.6% 0 in 5 W/m2
08:04 42.4 °F 36.1 °F 30.2 in Calm     78.4% 0 in 9 W/m2
08:09 42.4 °F 35.8 °F 30.2 in Calm     77% 0 in 13 W/m2
08:14 42.4 °F 36.1 °F 30.3 in Calm     77.7% 0 in 21 W/m2
08:19 42.6 °F 36.3 °F 30.3 in Calm     78% 0 in 28 W/m2
08:24 43 °F 36.3 °F 30.3 in Calm     77.2% 0 in 37 W/m2
08:29 43.3 °F 36.7 °F 30.3 in Calm     77.6% 0 in 55 W/m2
08:34 43.3 °F 36.3 °F 30.3 in Calm     75.7% 0 in 69 W/m2
08:39 43.9 °F 35.8 °F 30.3 in Calm     72.9% 0 in 77 W/m2
08:44 45 °F 36.5 °F 30.3 in Calm     72.2% 0 in 83 W/m2
08:49 45.7 °F 37.6 °F 30.3 in Calm     73% 0 in 88 W/m2
08:54 45.7 °F 37.6 °F 30.3 in Calm     72.8% 0 in 93 W/m2
08:59 45.7 °F 37.2 °F 30.3 in Calm     71.9% 0 in 94 W/m2
09:04 46.6 °F 37.4 °F 30.3 in Calm     70.2% 0 in 91 W/m2
09:09 47.3 °F 38.5 °F 30.3 in Calm     71.8% 0 in 94 W/m2
09:14 46.9 °F 38.7 °F 30.3 in Calm     72.8% 0 in 96 W/m2
09:19 46.8 °F 38.5 °F 30.3 in Calm     72.7% 0 in 98 W/m2
09:24 46.6 °F 38.1 °F 30.3 in Calm     72% 0 in 94 W/m2
09:29 46.4 °F 37.9 °F 30.3 in Calm     72% 0 in 87 W/m2
09:34 46.4 °F 37.8 °F 30.3 in Calm     71.8% 0 in 86 W/m2
09:39 46.4 °F 37.8 °F 30.3 in Calm   2.5 mph 71% 0 in 86 W/m2
09:44 47.1 °F 38.3 °F 30.3 in Calm     70.9% 0 in 86 W/m2
09:49 47.8 °F 38.5 °F 30.3 in Calm     69.8% 0 in 93 W/m2
09:54 47.8 °F 38.1 °F 30.3 in Calm     68.7% 0 in 105 W/m2
09:59 48 °F 38.5 °F 30.3 in Calm     69.7% 0 in 106 W/m2
10:04 48 °F 38.7 °F 30.3 in Calm     70% 0 in 112 W/m2
10:09 48 °F 38.7 °F 30.3 in Calm     70.1% 0 in 116 W/m2
10:14 48 °F 39 °F 30.3 in Calm     70.9% 0 in 117 W/m2
10:19 48 °F 39 °F 30.3 in Calm     70.9% 0 in 122 W/m2
10:24 49.1 °F 39.2 °F 30.3 in Calm     68.9% 0 in 125 W/m2
10:29 50.7 °F 39.9 °F 30.3 in Calm     66.7% 0 in 124 W/m2
10:34 50.7 °F 40.5 °F 30.3 in Calm     67.8% 0 in 119 W/m2
10:39 50.7 °F 40.6 °F 30.3 in Calm     68.2% 0 in 115 W/m2
10:44 50.7 °F 40.5 °F 30.3 in Calm     67.7% 0 in 113 W/m2
10:49 50.7 °F 40.6 °F 30.3 in Calm     68.3% 0 in 105 W/m2
10:54 50.5 °F 41 °F 30.3 in Calm     69.6% 0 in 105 W/m2
10:59 50.2 °F 40.8 °F 30.3 in Calm     69.8% 0 in 115 W/m2
11:04 49.6 °F 40.1 °F 30.3 in Calm     69.1% 0 in 120 W/m2
11:09 48.9 °F 39.9 °F 30.3 in Calm     70.9% 0 in 120 W/m2
11:14 48.9 °F 39.6 °F 30.3 in Calm     70.1% 0 in 126 W/m2
11:19 48.9 °F 39.4 °F 30.3 in Calm     69.3% 0 in 127 W/m2
11:24 49.3 °F 39.7 °F 30.3 in Calm     69.6% 0 in 120 W/m2
11:29 49.8 °F 40.1 °F 30.3 in Calm     68.9% 0 in 128 W/m2
11:34 49.8 °F 39.6 °F 30.3 in Calm     67.2% 0 in 128 W/m2
11:39 50 °F 40.1 °F 30.3 in Calm     68.7% 0 in 142 W/m2
11:44 50 °F 40.5 °F 30.3 in Calm     69.3% 0 in 163 W/m2
11:49 50.2 °F 39.7 °F 30.3 in Calm   4.9 mph 67.3% 0 in 172 W/m2
11:54 50.4 °F 39.6 °F 30.3 in Calm     66.8% 0 in 172 W/m2
11:59 50.5 °F 39.9 °F 30.3 in Calm     67.1% 0 in 136 W/m2
12:04 50.4 °F 40.5 °F 30.3 in SE 0.2 mph 4.9 mph 68.4% 0 in 120 W/m2
12:09 49.8 °F 39.7 °F 30.2 in South 0.3 mph 4.9 mph 68% 0 in 125 W/m2
12:14 50 °F 39.6 °F 30.2 in SE 0.2 mph 2.5 mph 67.1% 0 in 129 W/m2
12:19 50 °F 39.6 °F 30.2 in Calm     67% 0 in 109 W/m2
12:24 50 °F 39.9 °F 30.2 in SE 0.5 mph 4.9 mph 67.8% 0 in 105 W/m2
12:29 48.9 °F 39.2 °F 30.2 in Calm   2.5 mph 68.8% 0 in 118 W/m2
12:34 48.9 °F 39 °F 30.2 in Calm     68.4% 0 in 159 W/m2
12:39 48.9 °F 39.2 °F 30.2 in Calm     68.8% 0 in 182 W/m2
12:44 49.1 °F 39 °F 30.2 in Calm     68% 0 in 152 W/m2
12:49 49.8 °F 39.7 °F 30.2 in Calm     68% 0 in 151 W/m2
12:54 49.8 °F 40.1 °F 30.2 in Calm     68.8% 0 in 184 W/m2
12:59 49.8 °F 39.7 °F 30.2 in SE 0.1 mph 4.9 mph 68% 0 in 190 W/m2
13:04 50 °F 39.7 °F 30.2 in Calm     67.9% 0 in 185 W/m2
13:09 50.7 °F 40.1 °F 30.2 in Calm     67% 0 in 172 W/m2
13:14 50.7 °F 40.1 °F 30.2 in Calm     67% 0 in 146 W/m2
13:19 50.7 °F 40.5 °F 30.2 in SE 0.1 mph 4.9 mph 68% 0 in 177 W/m2
13:24 50.5 °F 40.5 °F 30.2 in SSE 0.7 mph 4.9 mph 68% 0 in 236 W/m2
13:29 50.9 °F 40.5 °F 30.2 in Calm   2.5 mph 67.3% 0 in 253 W/m2
13:34 50.9 °F 40.3 °F 30.2 in SSE 0.2 mph 2.5 mph 66.8% 0 in 262 W/m2
13:39 51.1 °F 40.1 °F 30.2 in South 0.3 mph 4.9 mph 66.4% 0 in 278 W/m2
13:44 51.1 °F 40.3 °F 30.2 in East 0.2 mph 4.9 mph 66.2% 0 in 220 W/m2
13:49 52 °F 41 °F 30.2 in SE 0.4 mph 4.9 mph 66.1% 0 in 287 W/m2
13:54 52 °F 41 °F 30.2 in SE 0.4 mph 4.9 mph 66.1% 0 in 288 W/m2
13:59 52 °F 41 °F 30.2 in SSE 0.6 mph 4.9 mph 66% 0 in 282 W/m2
14:04 52.2 °F 41.2 °F 30.2 in SSE 0.6 mph 4.9 mph 66% 0 in 285 W/m2
14:09 52.5 °F 41.2 °F 30.2 in Calm   4.9 mph 65.1% 0 in 286 W/m2
14:14 52.7 °F 41.2 °F 30.2 in South 0.1 mph 2.5 mph 64.8% 0 in 289 W/m2
14:19 52.7 °F 41.2 °F 30.2 in SSW 0.1 mph 4.9 mph 65% 0 in 301 W/m2
14:24 52.9 °F 41.4 °F 30.2 in South 0.1 mph 2.5 mph 64.8% 0 in 302 W/m2
14:29 54 °F 42.1 °F 30.2 in South 0.7 mph 4.9 mph 63.9% 0 in 299 W/m2
14:34 54 °F 41.9 °F 30.2 in SSE 1 mph 4.9 mph 63.7% 0 in 277 W/m2
14:39 54 °F 42.4 °F 30.2 in SE 2 mph 7.6 mph 65% 0 in 263 W/m2
14:44 53.8 °F 42.8 °F 30.2 in SSE 0.7 mph 7.6 mph 66.2% 0 in 257 W/m2
14:49 53.1 °F 42.4 °F 30.2 in South 0.4 mph 4.9 mph 67% 0 in 249 W/m2
14:54 52.9 °F 42.3 °F 30.2 in SE 0.8 mph 4.9 mph 67% 0 in 233 W/m2
14:59 52.9 °F 42.3 °F 30.2 in SSE 1.1 mph 4.9 mph 67% 0 in 223 W/m2
15:04 52.7 °F 42.3 °F 30.2 in Calm   4.9 mph 67.3% 0 in 168 W/m2
15:09 52.2 °F 41.7 °F 30.2 in SSE 0.6 mph 4.9 mph 67.3% 0 in 128 W/m2
15:14 52 °F 41.7 °F 30.2 in SSE 0.6 mph 7.6 mph 67.8% 0 in 98 W/m2
15:19 51.8 °F 41.4 °F 30.2 in South 0.1 mph 2.5 mph 67.6% 0 in 108 W/m2
15:24 51.8 °F 41.2 °F 30.2 in Calm   2.5 mph 67.1% 0 in 107 W/m2
15:29 51.3 °F 41 °F 30.2 in Calm     68% 0 in 101 W/m2
15:34 51.3 °F 41 °F 30.2 in SSE 0.3 mph 2.5 mph 68.2% 0 in 85 W/m2
15:39 51.1 °F 41.2 °F 30.2 in Calm     69% 0 in 73 W/m2
15:44 51.1 °F 41.2 °F 30.2 in Calm     69% 0 in 66 W/m2
15:49 51.1 °F 41.2 °F 30.2 in Calm     69% 0 in 64 W/m2
15:54 50.9 °F 41.2 °F 30.2 in Calm     69% 0 in 61 W/m2
15:59 50.9 °F 41.2 °F 30.2 in Calm     69% 0 in 57 W/m2
16:04 50.9 °F 41.2 °F 30.2 in Calm     69.2% 0 in 47 W/m2
16:09 50.9 °F 41.5 °F 30.2 in Calm     70% 0 in 38 W/m2
16:14 50.7 °F 41.4 °F 30.2 in Calm     70% 0 in 29 W/m2
16:19 50.7 °F 41.5 °F 30.2 in Calm     70.3% 0 in 29 W/m2
16:24 50.5 °F 41.7 °F 30.2 in Calm     71.2% 0 in 28 W/m2
16:29 50 °F 41.5 °F 30.2 in Calm     72.4% 0 in 29 W/m2
16:34 49.8 °F 41.9 °F 30.2 in Calm     73.8% 0 in 32 W/m2
16:39 49.8 °F 41.9 °F 30.2 in Calm     74% 0 in 30 W/m2
16:44 49.6 °F 41.7 °F 30.2 in Calm     74% 0 in 25 W/m2
16:49 49.6 °F 41.7 °F 30.2 in Calm     74% 0 in 26 W/m2
16:54 49.6 °F 41.7 °F 30.2 in Calm     74% 0 in 23 W/m2
16:59 49.6 °F 41.7 °F 30.2 in Calm     74.2% 0 in 16 W/m2
17:04 49.6 °F 42.8 °F 30.2 in Calm     77.3% 0 in 9 W/m2
17:09 49.8 °F 43.5 °F 30.2 in Calm     79.4% 0 in 8 W/m2
17:14 49.6 °F 44.2 °F 30.2 in Calm     81% 0 in 8 W/m2
17:19 49.6 °F 44.1 °F 30.2 in Calm     81.1% 0 in 5 W/m2
17:24 49.6 °F 44.8 °F 30.2 in Calm     82.8% 0 in 4 W/m2
17:29 49.5 °F 44.6 °F 30.2 in Calm     83.6% 0 in 0 W/m2
17:34 49.3 °F 44.6 °F 30.2 in Calm     84.2% 0 in 0 W/m2
17:39 49.3 °F 44.8 °F 30.2 in Calm     84.7% 0 in 0 W/m2
17:44 49.3 °F 45 °F 30.2 in Calm     85% 0 in 0 W/m2
17:49 48.9 °F 44.6 °F 30.2 in Calm     85% 0 in 0 W/m2
17:54 48.7 °F 44.4 °F 30.2 in Calm     85.2% 0 in 0 W/m2
17:59 48.6 °F 44.6 °F 30.2 in Calm   4.9 mph 86% 0 in 0 W/m2
18:04 48.6 °F 44.1 °F 30.2 in Calm     84.4% 0 in 0 W/m2
18:09 48.7 °F 44.4 °F 30.2 in SSW 0.1 mph 2.5 mph 84.8% 0 in 0 W/m2
18:14 48.7 °F 45.3 °F 30.2 in Calm   2.5 mph 87.8% 0 in 0 W/m2
18:19 48.7 °F 45.3 °F 30.2 in Calm     88.2% 0 in 0 W/m2
18:24 48.7 °F 45.7 °F 30.2 in Calm     89% 0 in 0 W/m2
18:29 48.6 °F 45.5 °F 30.2 in Calm     89% 0 in 0 W/m2
18:34 48.2 °F 45.3 °F 30.2 in Calm     89.8% 0 in 0 W/m2
18:39 48.2 °F 45.3 °F 30.2 in Calm   2.5 mph 89.8% 0 in 0 W/m2
18:44 48.2 °F 45.3 °F 30.2 in Calm   2.5 mph 89.7% 0 in 0 W/m2
18:49 48.2 °F 45.3 °F 30.2 in Calm     89.3% 0 in 0 W/m2
18:54 48.4 °F 45.3 °F 30.2 in Calm     89% 0 in 0 W/m2
18:59 48.4 °F 45.3 °F 30.2 in Calm     89.2% 0 in 0 W/m2
19:04 48.2 °F 45.3 °F 30.2 in Calm     89.6% 0 in 0 W/m2
19:09 48.2 °F 45.1 °F 30.2 in Calm   2.5 mph 90% 0 in 0 W/m2
19:14 48 °F 45 °F 30.2 in Calm     89.2% 0 in 0 W/m2
19:19 48 °F 45 °F 30.2 in South 0.2 mph 2.5 mph 89% 0 in 0 W/m2
19:24 48 °F 45 °F 30.2 in South 0.9 mph 4.9 mph 89% 0 in 0 W/m2
19:29 48.2 °F 45.1 °F 30.2 in South 0.9 mph 4.9 mph 89% 0 in 0 W/m2
19:34 48.4 °F 45.3 °F 30.2 in Calm   2.5 mph 89.4% 0 in 0 W/m2
19:39 48.2 °F 45.3 °F 30.2 in Calm     90.2% 0 in 0 W/m2
19:44 48 °F 45.9 °F 30.2 in Calm     91.9% 0 in 0 W/m2
19:49 46.9 °F 44.8 °F 30.2 in Calm     92.4% 0 in 0 W/m2
19:54 45.7 °F 44.1 °F 30.2 in Calm     93.8% 0 in 0 W/m2
19:59 45.7 °F 44.1 °F 30.2 in Calm     94% 0 in 0 W/m2
20:04 45.7 °F 44.2 °F 30.2 in Calm     94.7% 0 in 0 W/m2
20:09 45.3 °F 44.1 °F 30.2 in Calm     95% 0 in 0 W/m2
20:14 45.1 °F 44.2 °F 30.2 in South 0.1 mph 2.5 mph 96.1% 0 in 0 W/m2
20:19 45.3 °F 44.4 °F 30.2 in South 1.9 mph 4.9 mph 96.4% 0 in 0 W/m2
20:24 45.7 °F 44.6 °F 30.2 in South 1.7 mph 7.6 mph 96% 0 in 0 W/m2
20:29 46.6 °F 45.5 °F 30.2 in South 1.7 mph 4.9 mph 95.6% 0 in 0 W/m2
20:34 47.8 °F 46.8 °F 30.2 in South 2.3 mph 7.6 mph 95.8% 0 in 0 W/m2
20:39 47.8 °F 46.8 °F 30.2 in South 2.5 mph 7.6 mph 96.4% 0 in 0 W/m2
20:44 47.8 °F 46.9 °F 30.2 in South 1.2 mph 4.9 mph 97% 0 in 0 W/m2
20:49 47.8 °F 47.1 °F 30.2 in Calm   4.9 mph 97.3% 0 in 0 W/m2
20:54 47.8 °F 47.3 °F 30.2 in Calm     98% 0 in 0 W/m2
20:59 47.8 °F 47.1 °F 30.2 in Calm     97.4% 0 in 0 W/m2
21:04 47.8 °F 46.9 °F 30.2 in Calm     97.2% 0 in 0 W/m2
21:09 47.8 °F 47.3 °F 30.2 in Calm     98% 0 in 0 W/m2
21:14 47.8 °F 47.3 °F 30.2 in Calm     98% 0 in 0 W/m2
21:19 47.8 °F 47.3 °F 30.2 in Calm     98% 0 in 0 W/m2
21:24 47.8 °F 47.3 °F 30.2 in Calm     98% 0 in 0 W/m2
21:29 47.8 °F 47.7 °F 30.2 in Calm     98.9% 0 in 0 W/m2
21:34 47.8 °F 47.7 °F 30.2 in Calm     99% 0 in 0 W/m2
21:39 47.7 °F 47.3 °F 30.2 in Calm     98.7% 0 in 0 W/m2
21:44 47.7 °F 47.3 °F 30.2 in Calm     98.6% 0 in 0 W/m2
21:49 47.7 °F 47.5 °F 30.2 in Calm     99% 0 in 0 W/m2
21:54 47.8 °F 47.7 °F 30.2 in Calm     99% 0 in 0 W/m2
21:59 47.8 °F 47.7 °F 30.2 in Calm     99% 0 in 0 W/m2
22:04 47.8 °F 47.7 °F 30.2 in Calm     99% 0 in 0 W/m2
22:09 47.8 °F 47.7 °F 30.2 in Calm     99% 0 in 0 W/m2
22:14 48 °F 47.8 °F 30.2 in Calm     99% 0 in 0 W/m2
22:19 48 °F 47.8 °F 30.2 in South 0.1 mph 4.9 mph 99% 0 in 0 W/m2
22:24 48 °F 47.8 °F 30.2 in Calm     99% 0 in 0 W/m2
22:29 48 °F 47.8 °F 30.2 in Calm     99% 0 in 0 W/m2
22:34 48 °F 47.8 °F 30.2 in Calm     99% 0 in 0 W/m2
22:39 47.8 °F 47.7 °F 30.2 in Calm     99% 0 in 0 W/m2
22:44 47.8 °F 47.3 °F 30.2 in SE 0.2 mph 2.5 mph 98.2% 0 in 0 W/m2
22:49 47.5 °F 47.1 °F 30.2 in Calm     98.4% 0 in 0 W/m2
22:54 46.4 °F 46 °F 30.2 in Calm     98.7% 0 in 0 W/m2
22:59 46.4 °F 46.2 °F 30.2 in Calm     99% 0 in 0 W/m2
23:04 46.2 °F 46 °F 30.2 in Calm     99% 0 in 0 W/m2
23:09 46.2 °F 46 °F 30.2 in Calm     99% 0 in 0 W/m2
23:14 46.2 °F 45.9 °F 30.2 in Calm     98.9% 0 in 0 W/m2
23:19 46 °F 45.7 °F 30.2 in Calm     98.7% 0 in 0 W/m2
23:24 46 °F 45.9 °F 30.1 in Calm     98.7% 0 in 0 W/m2
23:29 45.9 °F 45 °F 30.1 in Calm     96.2% 0 in 0 W/m2
23:34 45.3 °F 44.2 °F 30.1 in Calm     95.7% 0 in 0 W/m2
23:39 45.3 °F 44.1 °F 30.1 in Calm     95% 0 in 0 W/m2
23:44 45.3 °F 44.1 °F 30.1 in Calm     95% 0 in 0 W/m2
23:49 45.1 °F 43.9 °F 30.1 in Calm     95% 0 in 0 W/m2
23:54 45.3 °F 44.1 °F 30.1 in Calm     95% 0 in 0 W/m2
23:59 45.1 °F 43.7 °F 30.1 in Calm     94.4% 0 in 0 W/m2
Juneau County Weather
Compliments of Weather Underground - 2 mb